sensor_id;sensor_type;location;lat;lon;timestamp;temperature;humidity
25554;DHT22;13446;50.926;5.332;2022-07-29T00:01:52;20.50;99.90
25554;DHT22;13446;50.926;5.332;2022-07-29T00:04:18;20.60;99.90
25554;DHT22;13446;50.926;5.332;2022-07-29T00:06:44;20.50;99.90
25554;DHT22;13446;50.926;5.332;2022-07-29T00:09:10;20.40;99.90
25554;DHT22;13446;50.926;5.332;2022-07-29T00:11:36;20.30;99.90
25554;DHT22;13446;50.926;5.332;2022-07-29T00:14:02;20.40;99.90
25554;DHT22;13446;50.926;5.332;2022-07-29T00:16:28;20.20;99.90
25554;DHT22;13446;50.926;5.332;2022-07-29T00:18:53;20.10;99.90
25554;DHT22;13446;50.926;5.332;2022-07-29T00:21:19;20.20;99.90
25554;DHT22;13446;50.926;5.332;2022-07-29T00:23:45;20.30;99.90
25554;DHT22;13446;50.926;5.332;2022-07-29T00:26:10;20.20;99.90
25554;DHT22;13446;50.926;5.332;2022-07-29T00:28:36;20.20;99.90
25554;DHT22;13446;50.926;5.332;2022-07-29T00:31:01;20.10;99.90
25554;DHT22;13446;50.926;5.332;2022-07-29T00:33:28;19.90;99.90
25554;DHT22;13446;50.926;5.332;2022-07-29T00:35:54;20.00;99.90
25554;DHT22;13446;50.926;5.332;2022-07-29T00:38:20;20.00;99.90
25554;DHT22;13446;50.926;5.332;2022-07-29T00:40:46;20.10;99.90
25554;DHT22;13446;50.926;5.332;2022-07-29T00:43:13;20.10;99.90
25554;DHT22;13446;50.926;5.332;2022-07-29T00:45:40;20.20;99.90
25554;DHT22;13446;50.926;5.332;2022-07-29T00:48:06;20.10;99.90
25554;DHT22;13446;50.926;5.332;2022-07-29T00:50:35;20.00;99.90
25554;DHT22;13446;50.926;5.332;2022-07-29T00:53:02;19.70;99.90
25554;DHT22;13446;50.926;5.332;2022-07-29T00:55:29;19.70;99.90
25554;DHT22;13446;50.926;5.332;2022-07-29T00:57:55;19.60;99.90
25554;DHT22;13446;50.926;5.332;2022-07-29T01:00:23;19.60;99.90
25554;DHT22;13446;50.926;5.332;2022-07-29T01:02:49;19.60;99.90
25554;DHT22;13446;50.926;5.332;2022-07-29T01:05:17;19.50;99.90
25554;DHT22;13446;50.926;5.332;2022-07-29T01:07:45;19.60;99.90
25554;DHT22;13446;50.926;5.332;2022-07-29T01:10:13;19.60;99.90
25554;DHT22;13446;50.926;5.332;2022-07-29T01:12:40;19.50;99.90
25554;DHT22;13446;50.926;5.332;2022-07-29T01:15:07;19.70;99.90
25554;DHT22;13446;50.926;5.332;2022-07-29T01:17:49;19.70;99.90
25554;DHT22;13446;50.926;5.332;2022-07-29T01:26:00;19.60;99.90
25554;DHT22;13446;50.926;5.332;2022-07-29T01:31:02;19.70;99.90
25554;DHT22;13446;50.926;5.332;2022-07-29T01:33:30;19.60;99.90
25554;DHT22;13446;50.926;5.332;2022-07-29T01:36:31;19.50;99.90
25554;DHT22;13446;50.926;5.332;2022-07-29T01:39:11;19.50;99.90
25554;DHT22;13446;50.926;5.332;2022-07-29T01:41:45;19.50;99.90
25554;DHT22;13446;50.926;5.332;2022-07-29T01:44:22;19.40;99.90
25554;DHT22;13446;50.926;5.332;2022-07-29T01:46:58;19.60;99.90
25554;DHT22;13446;50.926;5.332;2022-07-29T01:49:28;19.50;99.90
25554;DHT22;13446;50.926;5.332;2022-07-29T01:51:58;19.50;99.90
25554;DHT22;13446;50.926;5.332;2022-07-29T01:54:39;19.20;99.90
25554;DHT22;13446;50.926;5.332;2022-07-29T01:57:11;19.10;99.90
25554;DHT22;13446;50.926;5.332;2022-07-29T01:59:38;18.90;99.90
25554;DHT22;13446;50.926;5.332;2022-07-29T02:02:07;18.90;99.90
25554;DHT22;13446;50.926;5.332;2022-07-29T02:04:35;18.90;99.90
25554;DHT22;13446;50.926;5.332;2022-07-29T02:07:05;18.90;99.90
25554;DHT22;13446;50.926;5.332;2022-07-29T02:09:33;18.80;99.90
25554;DHT22;13446;50.926;5.332;2022-07-29T02:12:00;18.80;99.90
25554;DHT22;13446;50.926;5.332;2022-07-29T02:14:31;18.70;99.90
25554;DHT22;13446;50.926;5.332;2022-07-29T02:16:58;18.80;99.90
25554;DHT22;13446;50.926;5.332;2022-07-29T02:19:26;18.70;99.90
25554;DHT22;13446;50.926;5.332;2022-07-29T02:21:53;18.50;99.90
25554;DHT22;13446;50.926;5.332;2022-07-29T02:24:22;18.40;99.90
25554;DHT22;13446;50.926;5.332;2022-07-29T02:26:49;18.40;99.90
25554;DHT22;13446;50.926;5.332;2022-07-29T02:29:18;18.40;99.90
25554;DHT22;13446;50.926;5.332;2022-07-29T02:31:46;18.40;99.90
25554;DHT22;13446;50.926;5.332;2022-07-29T02:34:14;18.40;99.90
25554;DHT22;13446;50.926;5.332;2022-07-29T02:36:43;18.50;99.90
25554;DHT22;13446;50.926;5.332;2022-07-29T02:39:12;18.40;99.90
25554;DHT22;13446;50.926;5.332;2022-07-29T02:41:44;18.40;99.90
25554;DHT22;13446;50.926;5.332;2022-07-29T02:44:17;18.40;99.90
25554;DHT22;13446;50.926;5.332;2022-07-29T02:49:37;18.40;99.90
25554;DHT22;13446;50.926;5.332;2022-07-29T02:52:10;18.30;99.90
25554;DHT22;13446;50.926;5.332;2022-07-29T02:54:42;18.30;99.90
25554;DHT22;13446;50.926;5.332;2022-07-29T02:57:17;18.40;99.90
25554;DHT22;13446;50.926;5.332;2022-07-29T02:59:45;18.50;99.90
25554;DHT22;13446;50.926;5.332;2022-07-29T03:02:13;18.60;99.90
25554;DHT22;13446;50.926;5.332;2022-07-29T03:04:41;18.70;99.90
25554;DHT22;13446;50.926;5.332;2022-07-29T03:07:08;18.80;99.90
25554;DHT22;13446;50.926;5.332;2022-07-29T03:09:36;18.90;99.90
25554;DHT22;13446;50.926;5.332;2022-07-29T03:12:02;19.00;99.90
25554;DHT22;13446;50.926;5.332;2022-07-29T03:14:30;19.00;99.90
25554;DHT22;13446;50.926;5.332;2022-07-29T03:16:57;19.00;99.90
25554;DHT22;13446;50.926;5.332;2022-07-29T03:19:23;19.00;99.90
25554;DHT22;13446;50.926;5.332;2022-07-29T03:21:49;19.00;99.90
25554;DHT22;13446;50.926;5.332;2022-07-29T03:24:28;19.10;99.90
25554;DHT22;13446;50.926;5.332;2022-07-29T03:26:55;19.00;99.90
25554;DHT22;13446;50.926;5.332;2022-07-29T03:29:20;18.90;99.90
25554;DHT22;13446;50.926;5.332;2022-07-29T03:31:46;19.00;99.90
25554;DHT22;13446;50.926;5.332;2022-07-29T03:34:12;19.10;99.90
25554;DHT22;13446;50.926;5.332;2022-07-29T03:36:37;19.00;99.90
25554;DHT22;13446;50.926;5.332;2022-07-29T03:39:04;19.00;99.90
25554;DHT22;13446;50.926;5.332;2022-07-29T03:41:31;19.20;99.90
25554;DHT22;13446;50.926;5.332;2022-07-29T03:43:58;19.20;99.90
25554;DHT22;13446;50.926;5.332;2022-07-29T03:46:26;19.00;99.90
25554;DHT22;13446;50.926;5.332;2022-07-29T03:48:59;19.00;99.90
25554;DHT22;13446;50.926;5.332;2022-07-29T03:51:26;19.10;99.90
25554;DHT22;13446;50.926;5.332;2022-07-29T03:53:52;19.00;99.90
25554;DHT22;13446;50.926;5.332;2022-07-29T03:56:22;19.00;99.90
25554;DHT22;13446;50.926;5.332;2022-07-29T03:58:50;19.00;99.90
25554;DHT22;13446;50.926;5.332;2022-07-29T04:01:17;19.00;99.90
25554;DHT22;13446;50.926;5.332;2022-07-29T04:03:44;18.60;99.90
25554;DHT22;13446;50.926;5.332;2022-07-29T04:06:11;18.60;99.90
25554;DHT22;13446;50.926;5.332;2022-07-29T04:08:37;18.50;99.90
25554;DHT22;13446;50.926;5.332;2022-07-29T04:11:04;18.50;99.90
25554;DHT22;13446;50.926;5.332;2022-07-29T04:13:31;18.80;99.90
25554;DHT22;13446;50.926;5.332;2022-07-29T04:15:57;19.00;99.90
25554;DHT22;13446;50.926;5.332;2022-07-29T04:18:23;18.90;99.90
25554;DHT22;13446;50.926;5.332;2022-07-29T04:20:49;18.90;99.90
25554;DHT22;13446;50.926;5.332;2022-07-29T04:23:15;19.00;99.90
25554;DHT22;13446;50.926;5.332;2022-07-29T04:25:41;19.10;99.90
25554;DHT22;13446;50.926;5.332;2022-07-29T04:28:07;19.00;99.90
25554;DHT22;13446;50.926;5.332;2022-07-29T04:30:34;19.10;99.90
25554;DHT22;13446;50.926;5.332;2022-07-29T04:33:05;19.10;99.90
25554;DHT22;13446;50.926;5.332;2022-07-29T04:35:34;19.00;99.90
25554;DHT22;13446;50.926;5.332;2022-07-29T04:38:00;18.80;99.90
25554;DHT22;13446;50.926;5.332;2022-07-29T04:40:27;18.60;99.90
25554;DHT22;13446;50.926;5.332;2022-07-29T04:42:53;18.40;99.90
25554;DHT22;13446;50.926;5.332;2022-07-29T04:45:19;18.40;99.90
25554;DHT22;13446;50.926;5.332;2022-07-29T04:47:44;18.20;99.90
25554;DHT22;13446;50.926;5.332;2022-07-29T04:50:10;18.10;99.90
25554;DHT22;13446;50.926;5.332;2022-07-29T04:52:36;18.20;99.90
25554;DHT22;13446;50.926;5.332;2022-07-29T04:55:03;18.30;99.90
25554;DHT22;13446;50.926;5.332;2022-07-29T04:57:30;18.50;99.90
25554;DHT22;13446;50.926;5.332;2022-07-29T04:59:55;18.40;99.90
25554;DHT22;13446;50.926;5.332;2022-07-29T05:02:21;18.40;99.90
25554;DHT22;13446;50.926;5.332;2022-07-29T05:04:47;18.50;99.90
25554;DHT22;13446;50.926;5.332;2022-07-29T05:07:13;18.50;99.90
25554;DHT22;13446;50.926;5.332;2022-07-29T05:09:40;18.40;99.90
25554;DHT22;13446;50.926;5.332;2022-07-29T05:12:06;18.40;99.90
25554;DHT22;13446;50.926;5.332;2022-07-29T05:14:32;18.40;99.90
25554;DHT22;13446;50.926;5.332;2022-07-29T05:16:58;18.50;99.90
25554;DHT22;13446;50.926;5.332;2022-07-29T05:19:23;18.60;99.90
25554;DHT22;13446;50.926;5.332;2022-07-29T05:21:49;18.60;99.90
25554;DHT22;13446;50.926;5.332;2022-07-29T05:24:16;18.80;99.90
25554;DHT22;13446;50.926;5.332;2022-07-29T05:26:42;19.00;99.90
25554;DHT22;13446;50.926;5.332;2022-07-29T05:29:08;19.30;99.90
25554;DHT22;13446;50.926;5.332;2022-07-29T05:31:33;19.70;99.90
25554;DHT22;13446;50.926;5.332;2022-07-29T05:33:59;20.20;99.90
25554;DHT22;13446;50.926;5.332;2022-07-29T05:36:25;21.00;99.90
25554;DHT22;13446;50.926;5.332;2022-07-29T05:38:51;21.40;99.90
25554;DHT22;13446;50.926;5.332;2022-07-29T05:41:18;22.00;99.90
25554;DHT22;13446;50.926;5.332;2022-07-29T05:43:44;22.70;99.90
25554;DHT22;13446;50.926;5.332;2022-07-29T05:46:09;23.20;99.90
25554;DHT22;13446;50.926;5.332;2022-07-29T05:48:35;22.70;99.90
25554;DHT22;13446;50.926;5.332;2022-07-29T05:51:01;23.30;99.90
25554;DHT22;13446;50.926;5.332;2022-07-29T05:53:27;24.10;99.90
25554;DHT22;13446;50.926;5.332;2022-07-29T05:55:53;24.30;99.90
25554;DHT22;13446;50.926;5.332;2022-07-29T05:58:18;24.90;99.90
25554;DHT22;13446;50.926;5.332;2022-07-29T06:00:44;25.40;99.90
25554;DHT22;13446;50.926;5.332;2022-07-29T06:03:10;25.90;99.90
25554;DHT22;13446;50.926;5.332;2022-07-29T06:05:37;26.40;99.50
25554;DHT22;13446;50.926;5.332;2022-07-29T06:08:02;26.20;98.30
25554;DHT22;13446;50.926;5.332;2022-07-29T06:10:29;26.00;99.20
25554;DHT22;13446;50.926;5.332;2022-07-29T06:12:55;26.50;98.30
25554;DHT22;13446;50.926;5.332;2022-07-29T06:15:20;26.50;98.20
25554;DHT22;13446;50.926;5.332;2022-07-29T06:17:46;26.20;98.70
25554;DHT22;13446;50.926;5.332;2022-07-29T06:20:13;25.70;98.10
25554;DHT22;13446;50.926;5.332;2022-07-29T06:22:39;25.20;99.80
25554;DHT22;13446;50.926;5.332;2022-07-29T06:25:06;24.70;99.90
25554;DHT22;13446;50.926;5.332;2022-07-29T06:27:31;24.20;99.90
25554;DHT22;13446;50.926;5.332;2022-07-29T06:29:57;23.90;99.90
25554;DHT22;13446;50.926;5.332;2022-07-29T06:32:23;23.90;99.90
25554;DHT22;13446;50.926;5.332;2022-07-29T06:34:48;24.30;99.90
25554;DHT22;13446;50.926;5.332;2022-07-29T06:37:14;23.60;99.90
25554;DHT22;13446;50.926;5.332;2022-07-29T06:39:40;24.30;99.90
25554;DHT22;13446;50.926;5.332;2022-07-29T06:42:06;25.60;99.90
25554;DHT22;13446;50.926;5.332;2022-07-29T06:44:32;27.10;99.40
25554;DHT22;13446;50.926;5.332;2022-07-29T06:47:01;28.10;96.60
25554;DHT22;13446;50.926;5.332;2022-07-29T06:49:27;29.00;93.30
25554;DHT22;13446;50.926;5.332;2022-07-29T06:51:54;29.10;91.30
25554;DHT22;13446;50.926;5.332;2022-07-29T06:54:20;29.30;90.60
25554;DHT22;13446;50.926;5.332;2022-07-29T06:56:47;29.60;88.50
25554;DHT22;13446;50.926;5.332;2022-07-29T06:59:13;29.60;86.30
25554;DHT22;13446;50.926;5.332;2022-07-29T07:01:40;29.90;86.50
25554;DHT22;13446;50.926;5.332;2022-07-29T07:04:07;30.50;84.90
25554;DHT22;13446;50.926;5.332;2022-07-29T07:06:34;30.70;82.10
25554;DHT22;13446;50.926;5.332;2022-07-29T07:08:59;31.00;79.00
25554;DHT22;13446;50.926;5.332;2022-07-29T07:11:26;31.10;77.90
25554;DHT22;13446;50.926;5.332;2022-07-29T07:13:52;31.40;76.00
25554;DHT22;13446;50.926;5.332;2022-07-29T07:16:18;31.90;72.10
25554;DHT22;13446;50.926;5.332;2022-07-29T07:18:44;32.20;70.30
25554;DHT22;13446;50.926;5.332;2022-07-29T07:21:10;32.70;68.80
25554;DHT22;13446;50.926;5.332;2022-07-29T07:23:36;32.30;69.10
25554;DHT22;13446;50.926;5.332;2022-07-29T07:26:02;32.80;67.10
25554;DHT22;13446;50.926;5.332;2022-07-29T07:28:28;33.10;64.50
25554;DHT22;13446;50.926;5.332;2022-07-29T07:30:54;33.20;63.10
25554;DHT22;13446;50.926;5.332;2022-07-29T07:33:20;33.40;62.20
25554;DHT22;13446;50.926;5.332;2022-07-29T07:35:46;33.60;62.50
25554;DHT22;13446;50.926;5.332;2022-07-29T07:38:12;33.50;62.10
25554;DHT22;13446;50.926;5.332;2022-07-29T07:40:38;33.80;62.80
25554;DHT22;13446;50.926;5.332;2022-07-29T07:43:04;34.30;60.70
25554;DHT22;13446;50.926;5.332;2022-07-29T07:45:29;34.60;58.90
25554;DHT22;13446;50.926;5.332;2022-07-29T07:47:58;33.90;58.30
25554;DHT22;13446;50.926;5.332;2022-07-29T07:50:24;34.20;58.20
25554;DHT22;13446;50.926;5.332;2022-07-29T07:52:51;34.40;58.10
25554;DHT22;13446;50.926;5.332;2022-07-29T07:55:17;34.50;56.10
25554;DHT22;13446;50.926;5.332;2022-07-29T07:57:44;35.20;55.00
25554;DHT22;13446;50.926;5.332;2022-07-29T08:00:10;35.80;53.40
25554;DHT22;13446;50.926;5.332;2022-07-29T08:02:38;36.10;51.50
25554;DHT22;13446;50.926;5.332;2022-07-29T08:05:05;36.30;50.70
25554;DHT22;13446;50.926;5.332;2022-07-29T08:07:31;36.60;50.60
25554;DHT22;13446;50.926;5.332;2022-07-29T08:09:57;36.10;50.70
25554;DHT22;13446;50.926;5.332;2022-07-29T08:12:22;35.40;52.60
25554;DHT22;13446;50.926;5.332;2022-07-29T08:14:48;33.50;53.30
25554;DHT22;13446;50.926;5.332;2022-07-29T08:17:13;34.70;53.90
25554;DHT22;13446;50.926;5.332;2022-07-29T08:19:40;35.20;52.90
25554;DHT22;13446;50.926;5.332;2022-07-29T08:22:06;36.20;51.40
25554;DHT22;13446;50.926;5.332;2022-07-29T08:24:32;36.90;49.20
25554;DHT22;13446;50.926;5.332;2022-07-29T08:27:11;37.10;49.20
25554;DHT22;13446;50.926;5.332;2022-07-29T08:29:37;36.80;49.00
25554;DHT22;13446;50.926;5.332;2022-07-29T08:32:05;36.30;50.00
25554;DHT22;13446;50.926;5.332;2022-07-29T08:34:31;37.20;47.20
25554;DHT22;13446;50.926;5.332;2022-07-29T08:36:57;36.80;47.00
25554;DHT22;13446;50.926;5.332;2022-07-29T08:39:24;37.10;48.30
25554;DHT22;13446;50.926;5.332;2022-07-29T08:41:50;37.50;47.20
25554;DHT22;13446;50.926;5.332;2022-07-29T08:44:20;37.90;47.70
25554;DHT22;13446;50.926;5.332;2022-07-29T08:46:48;37.70;46.90
25554;DHT22;13446;50.926;5.332;2022-07-29T08:49:14;38.30;46.40
25554;DHT22;13446;50.926;5.332;2022-07-29T08:51:41;38.90;45.60
25554;DHT22;13446;50.926;5.332;2022-07-29T08:54:09;39.20;44.80
25554;DHT22;13446;50.926;5.332;2022-07-29T08:56:34;39.30;44.50
25554;DHT22;13446;50.926;5.332;2022-07-29T08:59:03;39.90;42.90
25554;DHT22;13446;50.926;5.332;2022-07-29T09:01:32;39.80;42.80
25554;DHT22;13446;50.926;5.332;2022-07-29T09:03:59;39.30;42.90
25554;DHT22;13446;50.926;5.332;2022-07-29T09:06:30;39.10;43.40
25554;DHT22;13446;50.926;5.332;2022-07-29T09:08:59;38.50;44.50
25554;DHT22;13446;50.926;5.332;2022-07-29T09:11:25;39.10;44.20
25554;DHT22;13446;50.926;5.332;2022-07-29T09:13:50;39.80;41.80
25554;DHT22;13446;50.926;5.332;2022-07-29T09:16:16;39.90;42.60
25554;DHT22;13446;50.926;5.332;2022-07-29T09:18:43;39.60;42.20
25554;DHT22;13446;50.926;5.332;2022-07-29T09:21:15;39.80;42.10
25554;DHT22;13446;50.926;5.332;2022-07-29T09:24:10;40.20;42.50
25554;DHT22;13446;50.926;5.332;2022-07-29T09:26:46;40.50;42.10
25554;DHT22;13446;50.926;5.332;2022-07-29T09:29:17;40.20;42.20
25554;DHT22;13446;50.926;5.332;2022-07-29T09:31:48;40.30;41.80
25554;DHT22;13446;50.926;5.332;2022-07-29T09:34:16;40.80;41.00
25554;DHT22;13446;50.926;5.332;2022-07-29T09:36:49;41.20;41.40
25554;DHT22;13446;50.926;5.332;2022-07-29T09:39:33;40.60;41.60
25554;DHT22;13446;50.926;5.332;2022-07-29T09:42:01;40.70;40.90
25554;DHT22;13446;50.926;5.332;2022-07-29T09:44:47;40.40;41.40
25554;DHT22;13446;50.926;5.332;2022-07-29T09:47:14;40.70;40.80
25554;DHT22;13446;50.926;5.332;2022-07-29T09:49:52;40.10;40.80
25554;DHT22;13446;50.926;5.332;2022-07-29T09:52:18;39.80;41.30
25554;DHT22;13446;50.926;5.332;2022-07-29T09:54:45;40.10;41.00
25554;DHT22;13446;50.926;5.332;2022-07-29T09:57:23;40.40;39.80
25554;DHT22;13446;50.926;5.332;2022-07-29T10:02:32;39.80;40.50
25554;DHT22;13446;50.926;5.332;2022-07-29T10:05:00;39.30;41.50
25554;DHT22;13446;50.926;5.332;2022-07-29T10:07:27;40.00;41.50
25554;DHT22;13446;50.926;5.332;2022-07-29T10:10:08;40.40;39.10
25554;DHT22;13446;50.926;5.332;2022-07-29T10:12:34;40.70;38.90
25554;DHT22;13446;50.926;5.332;2022-07-29T10:15:15;40.50;39.60
25554;DHT22;13446;50.926;5.332;2022-07-29T10:17:41;40.30;39.40
25554;DHT22;13446;50.926;5.332;2022-07-29T10:20:08;39.20;41.70
25554;DHT22;13446;50.926;5.332;2022-07-29T10:22:34;40.60;39.10
25554;DHT22;13446;50.926;5.332;2022-07-29T10:24:59;41.00;38.00
25554;DHT22;13446;50.926;5.332;2022-07-29T10:27:25;40.80;38.00
25554;DHT22;13446;50.926;5.332;2022-07-29T10:29:51;41.20;37.10
25554;DHT22;13446;50.926;5.332;2022-07-29T10:35:47;41.60;37.40
25554;DHT22;13446;50.926;5.332;2022-07-29T10:40:54;41.90;36.90
25554;DHT22;13446;50.926;5.332;2022-07-29T10:43:44;42.20;35.90
25554;DHT22;13446;50.926;5.332;2022-07-29T10:46:12;42.60;34.40
25554;DHT22;13446;50.926;5.332;2022-07-29T10:49:30;42.40;35.50
25554;DHT22;13446;50.926;5.332;2022-07-29T10:52:08;42.40;34.10
25554;DHT22;13446;50.926;5.332;2022-07-29T10:59:42;38.70;37.60
25554;DHT22;13446;50.926;5.332;2022-07-29T11:05:02;40.70;35.90
25554;DHT22;13446;50.926;5.332;2022-07-29T11:07:29;40.70;35.70
25554;DHT22;13446;50.926;5.332;2022-07-29T11:15:15;41.50;34.10
25554;DHT22;13446;50.926;5.332;2022-07-29T11:20:35;41.50;35.40
25554;DHT22;13446;50.926;5.332;2022-07-29T11:26:13;41.70;35.10
25554;DHT22;13446;50.926;5.332;2022-07-29T11:29:01;42.00;35.20
25554;DHT22;13446;50.926;5.332;2022-07-29T11:31:51;41.80;34.80
25554;DHT22;13446;50.926;5.332;2022-07-29T11:34:27;38.70;36.30
25554;DHT22;13446;50.926;5.332;2022-07-29T11:40:14;40.60;35.20
25554;DHT22;13446;50.926;5.332;2022-07-29T11:42:42;40.40;35.50
25554;DHT22;13446;50.926;5.332;2022-07-29T11:45:10;40.60;35.00
25554;DHT22;13446;50.926;5.332;2022-07-29T11:50:35;37.40;37.20
25554;DHT22;13446;50.926;5.332;2022-07-29T11:53:05;36.50;40.00
25554;DHT22;13446;50.926;5.332;2022-07-29T11:55:37;34.10;42.90
25554;DHT22;13446;50.926;5.332;2022-07-29T11:58:03;34.50;43.30
25554;DHT22;13446;50.926;5.332;2022-07-29T12:00:35;34.90;41.00
25554;DHT22;13446;50.926;5.332;2022-07-29T12:03:03;35.00;40.80
25554;DHT22;13446;50.926;5.332;2022-07-29T12:05:42;36.50;40.30
25554;DHT22;13446;50.926;5.332;2022-07-29T12:08:19;38.00;39.00
25554;DHT22;13446;50.926;5.332;2022-07-29T12:10:48;39.50;38.90
25554;DHT22;13446;50.926;5.332;2022-07-29T12:13:16;40.20;38.10
25554;DHT22;13446;50.926;5.332;2022-07-29T12:15:51;38.70;38.50
25554;DHT22;13446;50.926;5.332;2022-07-29T12:18:18;37.30;40.10
25554;DHT22;13446;50.926;5.332;2022-07-29T12:20:46;36.60;41.50
25554;DHT22;13446;50.926;5.332;2022-07-29T12:23:13;35.30;42.50
25554;DHT22;13446;50.926;5.332;2022-07-29T12:25:40;35.30;41.90
25554;DHT22;13446;50.926;5.332;2022-07-29T12:28:13;35.80;41.80
25554;DHT22;13446;50.926;5.332;2022-07-29T12:30:49;36.60;40.20
25554;DHT22;13446;50.926;5.332;2022-07-29T12:33:24;38.00;38.80
25554;DHT22;13446;50.926;5.332;2022-07-29T12:35:57;38.00;38.50
25554;DHT22;13446;50.926;5.332;2022-07-29T12:38:23;36.60;40.30
25554;DHT22;13446;50.926;5.332;2022-07-29T12:40:52;35.20;41.50
25554;DHT22;13446;50.926;5.332;2022-07-29T12:43:23;36.60;41.70
25554;DHT22;13446;50.926;5.332;2022-07-29T12:45:54;36.60;40.00
25554;DHT22;13446;50.926;5.332;2022-07-29T12:48:36;36.40;40.80
25554;DHT22;13446;50.926;5.332;2022-07-29T12:51:04;36.10;39.90
25554;DHT22;13446;50.926;5.332;2022-07-29T12:53:31;35.60;41.00
25554;DHT22;13446;50.926;5.332;2022-07-29T12:55:58;34.80;41.50
25554;DHT22;13446;50.926;5.332;2022-07-29T12:58:40;33.70;42.30
25554;DHT22;13446;50.926;5.332;2022-07-29T13:03:55;32.60;44.20
25554;DHT22;13446;50.926;5.332;2022-07-29T13:06:40;32.30;45.10
25554;DHT22;13446;50.926;5.332;2022-07-29T13:11:52;33.80;44.00
25554;DHT22;13446;50.926;5.332;2022-07-29T13:14:37;35.00;41.20
25554;DHT22;13446;50.926;5.332;2022-07-29T13:17:09;36.90;40.00
25554;DHT22;13446;50.926;5.332;2022-07-29T13:19:43;37.10;38.40
25554;DHT22;13446;50.926;5.332;2022-07-29T13:22:11;36.70;40.10
25554;DHT22;13446;50.926;5.332;2022-07-29T13:24:56;36.10;39.40
25554;DHT22;13446;50.926;5.332;2022-07-29T13:27:26;35.00;41.00
25554;DHT22;13446;50.926;5.332;2022-07-29T13:29:53;33.90;41.80
25554;DHT22;13446;50.926;5.332;2022-07-29T13:32:22;33.60;43.30
25554;DHT22;13446;50.926;5.332;2022-07-29T13:34:49;33.60;43.10
25554;DHT22;13446;50.926;5.332;2022-07-29T13:37:15;33.40;42.50
25554;DHT22;13446;50.926;5.332;2022-07-29T13:39:42;33.10;43.30
25554;DHT22;13446;50.926;5.332;2022-07-29T13:42:08;33.20;42.70
25554;DHT22;13446;50.926;5.332;2022-07-29T13:44:34;32.90;43.00
25554;DHT22;13446;50.926;5.332;2022-07-29T13:47:00;32.50;43.90
25554;DHT22;13446;50.926;5.332;2022-07-29T13:49:26;32.50;43.70
25554;DHT22;13446;50.926;5.332;2022-07-29T13:51:53;32.20;44.50
25554;DHT22;13446;50.926;5.332;2022-07-29T13:54:19;32.50;43.80
25554;DHT22;13446;50.926;5.332;2022-07-29T13:56:45;32.60;42.60
25554;DHT22;13446;50.926;5.332;2022-07-29T13:59:10;32.90;42.50
25554;DHT22;13446;50.926;5.332;2022-07-29T14:01:36;33.00;42.50
25554;DHT22;13446;50.926;5.332;2022-07-29T14:04:03;32.70;42.70
25554;DHT22;13446;50.926;5.332;2022-07-29T14:06:29;32.90;43.20
25554;DHT22;13446;50.926;5.332;2022-07-29T14:08:54;33.30;41.70
25554;DHT22;13446;50.926;5.332;2022-07-29T14:11:20;33.10;40.70
25554;DHT22;13446;50.926;5.332;2022-07-29T14:13:46;32.70;40.90
25554;DHT22;13446;50.926;5.332;2022-07-29T14:16:11;32.50;41.40
25554;DHT22;13446;50.926;5.332;2022-07-29T14:18:37;32.30;42.60
25554;DHT22;13446;50.926;5.332;2022-07-29T14:21:03;32.50;42.00
25554;DHT22;13446;50.926;5.332;2022-07-29T14:23:29;32.60;41.80
25554;DHT22;13446;50.926;5.332;2022-07-29T14:25:54;32.60;42.20
25554;DHT22;13446;50.926;5.332;2022-07-29T14:28:20;32.80;42.10
25554;DHT22;13446;50.926;5.332;2022-07-29T14:30:46;33.00;41.50
25554;DHT22;13446;50.926;5.332;2022-07-29T14:33:12;32.70;42.20
25554;DHT22;13446;50.926;5.332;2022-07-29T14:35:38;32.00;43.20
25554;DHT22;13446;50.926;5.332;2022-07-29T14:38:03;32.20;43.10
25554;DHT22;13446;50.926;5.332;2022-07-29T14:40:29;32.10;42.40
25554;DHT22;13446;50.926;5.332;2022-07-29T14:42:55;32.10;42.60
25554;DHT22;13446;50.926;5.332;2022-07-29T14:45:20;32.00;42.60
25554;DHT22;13446;50.926;5.332;2022-07-29T14:47:46;31.80;42.50
25554;DHT22;13446;50.926;5.332;2022-07-29T14:50:12;31.80;43.00
25554;DHT22;13446;50.926;5.332;2022-07-29T14:52:38;32.00;42.80
25554;DHT22;13446;50.926;5.332;2022-07-29T14:55:05;32.00;42.60
25554;DHT22;13446;50.926;5.332;2022-07-29T14:57:31;32.00;42.90
25554;DHT22;13446;50.926;5.332;2022-07-29T14:59:56;31.40;43.60
25554;DHT22;13446;50.926;5.332;2022-07-29T15:02:22;31.10;43.30
25554;DHT22;13446;50.926;5.332;2022-07-29T15:04:48;30.60;44.20
25554;DHT22;13446;50.926;5.332;2022-07-29T15:07:14;30.30;44.10
25554;DHT22;13446;50.926;5.332;2022-07-29T15:09:41;30.70;44.00
25554;DHT22;13446;50.926;5.332;2022-07-29T15:12:08;30.50;44.10
25554;DHT22;13446;50.926;5.332;2022-07-29T15:14:35;30.70;44.00
25554;DHT22;13446;50.926;5.332;2022-07-29T15:17:01;30.70;43.60
25554;DHT22;13446;50.926;5.332;2022-07-29T15:19:27;31.00;43.00
25554;DHT22;13446;50.926;5.332;2022-07-29T15:21:52;30.90;42.50
25554;DHT22;13446;50.926;5.332;2022-07-29T15:24:18;31.00;42.40
25554;DHT22;13446;50.926;5.332;2022-07-29T15:26:44;31.20;43.10
25554;DHT22;13446;50.926;5.332;2022-07-29T15:29:10;31.50;41.80
25554;DHT22;13446;50.926;5.332;2022-07-29T15:31:36;31.60;41.90
25554;DHT22;13446;50.926;5.332;2022-07-29T15:34:02;31.90;42.40
25554;DHT22;13446;50.926;5.332;2022-07-29T15:36:27;32.00;40.90
25554;DHT22;13446;50.926;5.332;2022-07-29T15:38:55;31.70;41.60
25554;DHT22;13446;50.926;5.332;2022-07-29T15:41:21;31.10;42.50
25554;DHT22;13446;50.926;5.332;2022-07-29T15:43:47;31.10;42.50
25554;DHT22;13446;50.926;5.332;2022-07-29T15:46:14;31.10;42.70
25554;DHT22;13446;50.926;5.332;2022-07-29T15:48:59;31.00;42.30
25554;DHT22;13446;50.926;5.332;2022-07-29T15:51:25;31.00;43.00
25554;DHT22;13446;50.926;5.332;2022-07-29T15:53:51;30.90;42.20
25554;DHT22;13446;50.926;5.332;2022-07-29T15:56:16;30.90;42.70
25554;DHT22;13446;50.926;5.332;2022-07-29T15:58:42;30.80;43.20
25554;DHT22;13446;50.926;5.332;2022-07-29T16:01:08;30.80;42.30
25554;DHT22;13446;50.926;5.332;2022-07-29T16:03:33;30.80;42.70
25554;DHT22;13446;50.926;5.332;2022-07-29T16:05:59;30.80;42.90
25554;DHT22;13446;50.926;5.332;2022-07-29T16:08:25;30.90;42.20
25554;DHT22;13446;50.926;5.332;2022-07-29T16:10:51;30.80;41.80
25554;DHT22;13446;50.926;5.332;2022-07-29T16:13:16;30.70;42.20
25554;DHT22;13446;50.926;5.332;2022-07-29T16:15:42;30.50;42.70
25554;DHT22;13446;50.926;5.332;2022-07-29T16:18:08;30.40;42.70
25554;DHT22;13446;50.926;5.332;2022-07-29T16:20:35;30.40;42.80
25554;DHT22;13446;50.926;5.332;2022-07-29T16:23:02;30.30;42.20
25554;DHT22;13446;50.926;5.332;2022-07-29T16:25:28;30.40;42.70
25554;DHT22;13446;50.926;5.332;2022-07-29T16:27:53;30.30;43.20